createdAt,value
2022-08-03T00:00:26.961Z,98537.84
2022-08-03T00:02:53.959Z,98542.38
2022-08-03T00:05:20.890Z,98547.69
2022-08-03T00:07:48.621Z,98545.31
2022-08-03T00:10:17.266Z,98546.78
2022-08-03T00:12:43.949Z,98546.78
2022-08-03T00:15:11.343Z,98543.53
2022-08-03T00:17:53.674Z,98551.97
2022-08-03T00:20:24.026Z,98544.19
2022-08-03T00:22:51.495Z,98548.28
2022-08-03T00:25:19.268Z,98549.25
2022-08-03T00:27:45.852Z,98538.13
2022-08-03T00:30:15.343Z,98542.00
2022-08-03T00:32:45.165Z,98541.69
2022-08-03T00:35:28.041Z,98543.28
2022-08-03T00:37:59.986Z,98536.59
2022-08-03T00:40:26.638Z,98544.13
2022-08-03T00:42:54.556Z,98536.69
2022-08-03T00:45:26.474Z,98539.59
2022-08-03T00:47:53.580Z,98538.97
2022-08-03T00:50:22.876Z,98536.75
2022-08-03T00:52:51.724Z,98543.28
2022-08-03T00:55:18.651Z,98554.69
2022-08-03T00:57:46.291Z,98543.38
2022-08-03T01:00:17.403Z,98543.53
2022-08-03T01:02:44.075Z,98530.63
2022-08-03T01:05:11.109Z,98531.09
2022-08-03T01:07:58.842Z,98531.38
2022-08-03T01:11:00.578Z,98538.09
2022-08-03T01:14:01.243Z,98531.47
2022-08-03T01:16:41.384Z,98533.63
2022-08-03T01:19:41.141Z,98528.63
2022-08-03T01:22:32.091Z,98525.28
2022-08-03T01:25:11.650Z,98524.16
2022-08-03T01:27:51.497Z,98524.72
2022-08-03T01:30:19.018Z,98520.84
2022-08-03T01:33:01.082Z,98523.78
2022-08-03T01:35:52.491Z,98521.31
2022-08-03T01:38:26.187Z,98512.63
2022-08-03T01:40:54.788Z,98518.50
2022-08-03T01:44:28.487Z,98520.78
2022-08-03T01:46:16.004Z,98508.22
2022-08-03T01:48:44.868Z,98513.84
2022-08-03T01:51:13.478Z,98515.84
2022-08-03T01:53:44.196Z,98513.75
2022-08-03T01:56:13.368Z,98516.31
2022-08-03T01:58:41.730Z,98518.41
2022-08-03T02:01:10.429Z,98503.88
2022-08-03T02:03:59.982Z,98511.47
2022-08-03T02:07:00.365Z,98507.84
2022-08-03T02:09:20.035Z,98498.22
2022-08-03T02:11:47.431Z,98510.97
2022-08-03T02:14:15.837Z,98512.09
2022-08-03T02:16:45.434Z,98509.31
2022-08-03T02:19:13.674Z,98509.53
2022-08-03T02:21:55.849Z,98506.34
2022-08-03T02:24:27.522Z,98497.75
2022-08-03T02:26:56.254Z,98502.34
2022-08-03T02:29:38.629Z,98508.44
2022-08-03T02:32:12.858Z,98506.66
2022-08-03T02:34:42.094Z,98505.84
2022-08-03T02:37:12.028Z,98510.41
2022-08-03T02:39:41.859Z,98512.63
2022-08-03T02:42:12.241Z,98513.91
2022-08-03T02:44:43.773Z,98499.81
2022-08-03T02:47:11.739Z,98504.69
2022-08-03T02:49:50.701Z,98510.09
2022-08-03T02:52:21.626Z,98518.03
2022-08-03T02:54:51.130Z,98513.13
2022-08-03T02:57:20.021Z,98509.03
2022-08-03T02:59:47.594Z,98523.03
2022-08-03T03:02:16.588Z,98514.56
2022-08-03T03:04:53.748Z,98514.09
2022-08-03T03:07:35.362Z,98517.31
2022-08-03T03:10:18.662Z,98513.47
2022-08-03T03:12:46.813Z,98511.91
2022-08-03T03:15:13.400Z,98515.13
2022-08-03T03:17:42.546Z,98517.25
2022-08-03T03:20:09.696Z,98515.72
2022-08-03T03:22:36.518Z,98510.47
2022-08-03T03:25:03.493Z,98510.63
2022-08-03T03:27:30.691Z,98518.16
2022-08-03T03:29:59.277Z,98517.84
2022-08-03T03:32:29.802Z,98516.88
2022-08-03T03:34:57.038Z,98512.63
2022-08-03T03:37:23.611Z,98517.72
2022-08-03T03:39:50.447Z,98514.25
2022-08-03T03:42:17.416Z,98513.91
2022-08-03T03:44:44.237Z,98521.78
2022-08-03T03:47:10.930Z,98518.66
2022-08-03T03:49:41.249Z,98524.56
2022-08-03T03:52:07.813Z,98519.72
2022-08-03T03:54:45.818Z,98513.56
2022-08-03T03:57:12.956Z,98526.13
2022-08-03T03:59:43.953Z,98524.22
2022-08-03T04:02:12.122Z,98519.38
2022-08-03T04:04:57.566Z,98523.16
2022-08-03T04:07:44.694Z,98522.72
2022-08-03T04:10:36.895Z,98532.25
2022-08-03T04:13:10.802Z,98517.34
2022-08-03T04:15:39.813Z,98519.31
2022-08-03T04:18:09.710Z,98520.28
2022-08-03T04:20:38.821Z,98523.63
2022-08-03T04:23:15.521Z,98522.84
2022-08-03T04:25:43.979Z,98529.44
2022-08-03T04:28:30.855Z,98518.75
2022-08-03T04:31:01.293Z,98521.59
2022-08-03T04:33:31.321Z,98524.13
2022-08-03T04:36:03.175Z,98533.13
2022-08-03T04:38:38.650Z,98538.09
2022-08-03T04:41:05.699Z,98537.59
2022-08-03T04:43:34.195Z,98532.47
2022-08-03T04:46:02.556Z,98539.38
2022-08-03T04:48:29.326Z,98538.31
2022-08-03T04:50:56.399Z,98538.19
2022-08-03T04:53:23.253Z,98541.41
2022-08-03T04:55:49.963Z,98548.41
2022-08-03T04:58:16.478Z,98547.81
2022-08-03T05:00:43.607Z,98547.72
2022-08-03T05:03:20.285Z,98549.19
2022-08-03T05:06:01.715Z,98552.69
2022-08-03T05:08:29.259Z,98552.81
2022-08-03T05:10:58.903Z,98555.78
2022-08-03T05:13:26.052Z,98556.69
2022-08-03T05:15:52.703Z,98553.75
2022-08-03T05:18:19.379Z,98554.47
2022-08-03T05:20:45.937Z,98551.28
2022-08-03T05:23:12.645Z,98560.88
2022-08-03T05:25:39.421Z,98555.19
2022-08-03T05:28:06.043Z,98559.78
2022-08-03T05:30:34.107Z,98551.03
2022-08-03T05:33:02.752Z,98554.94
2022-08-03T05:35:57.265Z,98561.06
2022-08-03T05:38:24.079Z,98550.13
2022-08-03T05:40:56.998Z,98559.88
2022-08-03T05:43:24.987Z,98555.44
2022-08-03T05:46:11.767Z,98539.19
2022-08-03T05:48:38.368Z,98551.06
2022-08-03T05:51:11.094Z,98555.59
2022-08-03T05:53:38.595Z,98557.91
2022-08-03T05:56:13.617Z,98552.47
2022-08-03T05:58:44.097Z,98562.28
2022-08-03T06:01:11.035Z,98553.81
2022-08-03T06:03:37.689Z,98557.38
2022-08-03T06:06:04.602Z,98556.59
2022-08-03T06:08:31.239Z,98553.69
2022-08-03T06:10:57.796Z,98548.47
2022-08-03T06:13:24.481Z,98556.94
2022-08-03T06:15:51.031Z,98551.78
2022-08-03T06:18:17.812Z,98558.03
2022-08-03T06:20:44.466Z,98564.88
2022-08-03T06:23:16.178Z,98563.97
2022-08-03T06:25:44.790Z,98565.84
2022-08-03T06:31:01.275Z,98561.94
2022-08-03T06:34:30.907Z,98565.63
2022-08-03T06:36:15.259Z,98569.13
2022-08-03T06:38:41.890Z,98567.16
2022-08-03T06:41:08.694Z,98562.41
2022-08-03T06:43:37.804Z,98568.69
2022-08-03T06:46:05.526Z,98568.13
2022-08-03T06:48:32.626Z,98559.81
2022-08-03T06:50:59.538Z,98570.75
2022-08-03T06:53:26.298Z,98569.34
2022-08-03T06:55:55.048Z,98569.97
2022-08-03T06:58:22.163Z,98566.72
2022-08-03T07:00:48.729Z,98571.41
2022-08-03T07:03:15.571Z,98572.63
2022-08-03T07:05:43.489Z,98568.25
2022-08-03T07:08:10.448Z,98575.06
2022-08-03T07:10:37.254Z,98573.69
2022-08-03T07:13:04.837Z,98577.59
2022-08-03T07:15:54.327Z,98577.06
2022-08-03T07:18:24.592Z,98580.78
2022-08-03T07:20:58.061Z,98581.78
2022-08-03T07:23:25.683Z,98590.50
2022-08-03T07:25:52.614Z,98588.41
2022-08-03T07:28:19.874Z,98585.59
2022-08-03T07:30:46.615Z,98593.94
2022-08-03T07:33:13.494Z,98587.50
2022-08-03T07:35:40.052Z,98591.13
2022-08-03T07:38:06.777Z,98597.66
2022-08-03T07:40:33.444Z,98591.94
2022-08-03T07:43:00.168Z,98590.19
2022-08-03T07:45:27.026Z,98587.91
2022-08-03T07:47:54.308Z,98587.88
2022-08-03T07:50:21.860Z,98583.34
2022-08-03T07:52:49.552Z,98588.69
2022-08-03T07:55:18.256Z,98585.69
2022-08-03T07:57:45.015Z,98582.78
2022-08-03T08:00:19.321Z,98582.03
2022-08-03T08:02:46.287Z,98583.72
2022-08-03T08:05:13.199Z,98582.09
2022-08-03T08:07:40.308Z,98574.81
2022-08-03T08:10:09.897Z,98579.66
2022-08-03T08:12:38.590Z,98580.72
2022-08-03T08:15:06.050Z,98575.44
2022-08-03T08:17:42.051Z,98567.91
2022-08-03T08:20:09.813Z,98570.78
2022-08-03T08:22:36.360Z,98575.94
2022-08-03T08:25:04.403Z,98575.94
2022-08-03T08:28:30.081Z,98575.38
2022-08-03T08:30:20.164Z,98574.13
2022-08-03T08:32:47.401Z,98572.16
2022-08-03T08:35:14.091Z,98567.53
2022-08-03T08:37:41.271Z,98573.59
2022-08-03T08:40:09.146Z,98566.38
2022-08-03T08:42:40.334Z,98560.38
2022-08-03T08:45:12.042Z,98566.19
2022-08-03T08:47:51.788Z,98556.91
2022-08-03T08:50:22.761Z,98563.00
2022-08-03T08:52:56.005Z,98560.78
2022-08-03T08:55:24.111Z,98558.38
2022-08-03T08:58:01.707Z,98555.41
2022-08-03T09:00:30.827Z,98560.03
2022-08-03T09:02:57.355Z,98562.63
2022-08-03T09:05:41.387Z,98563.38
2022-08-03T09:08:11.030Z,98565.63
2022-08-03T09:10:37.602Z,98568.09
2022-08-03T09:13:04.261Z,98568.94
2022-08-03T09:15:33.203Z,98570.22
2022-08-03T09:18:02.574Z,98570.41
2022-08-03T09:20:31.452Z,98557.66
2022-08-03T09:23:00.573Z,98557.84
2022-08-03T09:25:37.110Z,98559.72
2022-08-03T09:28:33.726Z,98550.19
2022-08-03T09:31:01.950Z,98555.69
2022-08-03T09:33:36.025Z,98551.69
2022-08-03T09:36:03.170Z,98553.13
2022-08-03T09:38:30.086Z,98548.84
2022-08-03T09:41:00.290Z,98547.41
2022-08-03T09:43:27.966Z,98549.66
2022-08-03T09:46:04.089Z,98548.06
2022-08-03T09:48:31.760Z,98545.84
2022-08-03T09:51:14.243Z,98549.31
2022-08-03T09:53:58.522Z,98545.88
2022-08-03T09:56:41.504Z,98540.59
2022-08-03T09:59:08.902Z,98544.66
2022-08-03T10:01:36.389Z,98521.25
2022-08-03T10:04:05.146Z,98536.72
2022-08-03T10:06:32.637Z,98540.56
2022-08-03T10:09:09.461Z,98536.94
2022-08-03T10:11:41.208Z,98529.41
2022-08-03T10:14:11.437Z,98531.41
2022-08-03T10:16:40.251Z,98535.91
2022-08-03T10:19:08.356Z,98527.53
2022-08-03T10:21:39.315Z,98521.66
2022-08-03T10:24:08.826Z,98523.91
2022-08-03T10:26:37.961Z,98514.31
2022-08-03T10:29:12.837Z,98520.25
2022-08-03T10:31:57.890Z,98505.78
2022-08-03T10:34:29.161Z,98502.91
2022-08-03T10:36:58.771Z,98492.72
2022-08-03T10:39:29.824Z,98498.59
2022-08-03T10:41:58.769Z,98495.94
2022-08-03T10:44:33.379Z,98495.06
2022-08-03T10:47:01.062Z,98488.31
2022-08-03T10:49:34.846Z,98487.72
2022-08-03T10:52:12.875Z,98484.66
2022-08-03T10:55:07.728Z,98482.63
2022-08-03T10:57:43.835Z,98488.28
2022-08-03T11:00:15.451Z,98481.78
2022-08-03T11:03:07.013Z,98478.31
2022-08-03T11:05:45.482Z,98478.03
2022-08-03T11:08:28.733Z,98474.69
2022-08-03T11:10:57.971Z,98474.03
2022-08-03T11:13:26.139Z,98472.19
2022-08-03T11:16:01.602Z,98466.91
2022-08-03T11:18:30.634Z,98466.06
2022-08-03T11:20:59.944Z,98464.69
2022-08-03T11:24:04.810Z,98453.50
2022-08-03T11:26:33.752Z,98460.53
2022-08-03T11:29:29.352Z,98459.41
2022-08-03T11:31:56.243Z,98453.88
2022-08-03T11:34:24.410Z,98457.53
2022-08-03T11:37:21.443Z,98456.41
2022-08-03T11:39:50.742Z,98454.50
2022-08-03T11:42:23.806Z,98446.16
2022-08-03T11:44:51.717Z,98448.41
2022-08-03T11:47:20.796Z,98447.66
2022-08-03T11:49:49.039Z,98444.72
2022-08-03T11:52:17.676Z,98442.00
2022-08-03T11:54:44.524Z,98437.72
2022-08-03T11:57:11.328Z,98433.63
2022-08-03T11:59:38.763Z,98431.63
2022-08-03T12:02:14.702Z,98431.09
2022-08-03T12:04:58.327Z,98431.50
2022-08-03T12:08:02.720Z,98436.06
2022-08-03T12:10:15.123Z,98430.78
2022-08-03T12:12:46.338Z,98426.13
2022-08-03T12:15:13.446Z,98428.56
2022-08-03T12:17:41.530Z,98425.63
2022-08-03T12:20:10.327Z,98427.63
2022-08-03T12:22:40.731Z,98413.78
2022-08-03T12:25:09.012Z,98410.47
2022-08-03T12:27:36.384Z,98408.34
2022-08-03T12:30:04.002Z,98409.53
2022-08-03T12:32:31.167Z,98411.22
2022-08-03T12:35:04.404Z,98406.34
2022-08-03T12:37:32.050Z,98404.28
2022-08-03T12:40:09.999Z,98401.97
2022-08-03T12:42:38.942Z,98407.56
2022-08-03T12:45:26.427Z,98402.69
2022-08-03T12:47:58.022Z,98397.16
2022-08-03T12:50:33.853Z,98399.88
2022-08-03T12:53:02.521Z,98392.06
2022-08-03T12:55:56.551Z,98394.25
2022-08-03T12:58:33.803Z,98401.31
2022-08-03T13:01:01.670Z,98399.94
2022-08-03T13:03:42.202Z,98380.25
2022-08-03T13:06:18.114Z,98395.06
2022-08-03T13:08:45.967Z,98381.78
2022-08-03T13:11:55.961Z,98372.06
2022-08-03T13:14:16.838Z,98385.88
2022-08-03T13:16:47.559Z,98377.03
2022-08-03T13:19:15.589Z,98376.13
2022-08-03T13:22:01.602Z,98378.69
2022-08-03T13:24:31.398Z,98378.59
2022-08-03T13:26:58.595Z,98374.88
2022-08-03T13:29:25.142Z,98365.91
2022-08-03T13:31:51.882Z,98363.16
2022-08-03T13:34:23.012Z,98365.38
2022-08-03T13:39:57.794Z,98361.34
2022-08-03T13:42:30.592Z,98362.97
2022-08-03T13:44:57.578Z,98354.06
2022-08-03T13:47:24.087Z,98357.84
2022-08-03T13:49:54.217Z,98347.47
2022-08-03T13:52:28.155Z,98351.84
2022-08-03T13:54:54.798Z,98352.91
2022-08-03T13:58:03.078Z,98346.09
2022-08-03T14:00:09.044Z,98338.38
2022-08-03T14:02:35.728Z,98345.66
2022-08-03T14:05:02.471Z,98335.59
2022-08-03T14:07:29.029Z,98343.22
2022-08-03T14:09:55.761Z,98337.31
2022-08-03T14:12:22.579Z,98334.78
2022-08-03T14:14:49.282Z,98332.13
2022-08-03T14:17:16.389Z,98321.03
2022-08-03T14:19:53.240Z,98327.25
2022-08-03T14:22:21.345Z,98319.19
2022-08-03T14:24:48.034Z,98315.59
2022-08-03T14:27:16.419Z,98307.88
2022-08-03T14:29:43.021Z,98307.78
2022-08-03T14:32:13.252Z,98300.47
2022-08-03T14:34:40.847Z,98307.56
2022-08-03T14:37:07.772Z,98312.31
2022-08-03T14:42:21.616Z,98293.66
2022-08-03T14:44:48.305Z,98290.22
2022-08-03T14:47:15.038Z,98286.97
2022-08-03T14:50:38.327Z,98297.81
2022-08-03T14:52:29.004Z,98286.47
2022-08-03T14:54:55.580Z,98286.94
2022-08-03T14:57:22.471Z,98281.25
2022-08-03T14:59:55.903Z,98287.41
2022-08-03T15:02:24.434Z,98277.78
2022-08-03T15:04:51.649Z,98281.28
2022-08-03T15:07:24.413Z,98269.72
2022-08-03T15:09:54.489Z,98274.78
2022-08-03T15:12:21.476Z,98270.75
2022-08-03T15:14:49.152Z,98267.28
2022-08-03T15:17:21.418Z,98260.22
2022-08-03T15:20:02.236Z,98265.28
2022-08-03T15:22:35.405Z,98256.88
2022-08-03T15:26:04.210Z,98258.97
2022-08-03T15:28:02.763Z,98251.75
2022-08-03T15:30:31.334Z,98250.69
2022-08-03T15:32:57.900Z,98241.81
2022-08-03T15:35:24.723Z,98245.06
2022-08-03T15:37:51.439Z,98244.47
2022-08-03T15:40:18.089Z,98255.81
2022-08-03T15:42:47.748Z,98241.97
2022-08-03T15:45:14.417Z,98241.00
2022-08-03T15:47:44.656Z,98241.00
2022-08-03T15:50:11.995Z,98236.84
2022-08-03T15:52:38.628Z,98242.88
2022-08-03T15:55:05.634Z,98225.84
2022-08-03T15:57:32.385Z,98232.31
2022-08-03T15:59:58.977Z,98236.50
2022-08-03T16:02:34.401Z,98228.50
2022-08-03T16:05:01.553Z,98224.00
2022-08-03T16:08:03.099Z,98228.44
2022-08-03T16:10:32.192Z,98230.25
2022-08-03T16:13:00.001Z,98219.28
2022-08-03T16:15:27.980Z,98222.06
2022-08-03T16:17:54.816Z,98219.69
2022-08-03T16:20:31.234Z,98224.69
2022-08-03T16:23:08.509Z,98217.25
2022-08-03T16:25:40.593Z,98214.84
2022-08-03T16:28:13.453Z,98222.63
2022-08-03T16:30:43.503Z,98223.09
2022-08-03T16:33:11.475Z,98215.69
2022-08-03T16:35:43.933Z,98220.16
2022-08-03T16:38:13.073Z,98217.03
2022-08-03T16:40:42.560Z,98212.75
2022-08-03T16:43:18.290Z,98227.41
2022-08-03T16:45:49.235Z,98219.09
2022-08-03T16:48:16.953Z,98218.00
2022-08-03T16:50:44.289Z,98216.41
2022-08-03T16:53:15.648Z,98215.13
2022-08-03T16:55:53.817Z,98209.47
2022-08-03T16:58:34.278Z,98211.09
2022-08-03T17:01:21.472Z,98218.28
2022-08-03T17:04:02.141Z,98213.44
2022-08-03T17:06:37.082Z,98216.66
2022-08-03T17:09:10.257Z,98205.47
2022-08-03T17:11:44.271Z,98213.00
2022-08-03T17:14:16.089Z,98210.44
2022-08-03T17:16:52.750Z,98215.19
2022-08-03T17:19:23.168Z,98213.34
2022-08-03T17:21:57.288Z,98211.47
2022-08-03T17:24:31.166Z,98214.50
2022-08-03T17:27:01.168Z,98218.81
2022-08-03T17:29:29.951Z,98216.00
2022-08-03T17:31:56.832Z,98211.84
2022-08-03T17:34:26.566Z,98219.84
2022-08-03T17:37:27.360Z,98222.81
2022-08-03T17:39:59.833Z,98223.19
2022-08-03T17:42:31.321Z,98222.41
2022-08-03T17:45:01.682Z,98223.34
2022-08-03T17:47:29.129Z,98224.63
2022-08-03T17:50:23.929Z,98222.00
2022-08-03T17:53:07.414Z,98229.53
2022-08-03T17:58:54.692Z,98236.38
2022-08-03T18:02:00.219Z,98244.50
2022-08-03T18:04:38.155Z,98245.00
2022-08-03T18:07:12.544Z,98244.03
2022-08-03T18:10:06.159Z,98233.19
2022-08-03T18:12:43.453Z,98247.31
2022-08-03T18:15:22.997Z,98249.59
2022-08-03T18:17:55.858Z,98245.53
2022-08-03T18:20:34.156Z,98250.81
2022-08-03T18:23:08.824Z,98250.81
2022-08-03T18:25:45.227Z,98251.88
2022-08-03T18:28:18.745Z,98252.63
2022-08-03T18:30:53.894Z,98254.25
2022-08-03T18:34:19.775Z,98249.56
2022-08-03T18:36:17.421Z,98252.09
2022-08-03T18:38:51.656Z,98261.19
2022-08-03T18:41:32.979Z,98256.00
2022-08-03T18:44:08.004Z,98259.84
2022-08-03T18:46:54.512Z,98265.25
2022-08-03T18:49:29.061Z,98260.63
2022-08-03T18:52:15.808Z,98265.25
2022-08-03T18:55:19.815Z,98271.41
2022-08-03T18:58:15.845Z,98275.66
2022-08-03T19:01:06.171Z,98275.78
2022-08-03T19:03:57.047Z,98281.94
2022-08-03T19:06:28.773Z,98289.06
2022-08-03T19:09:12.775Z,98291.25
2022-08-03T19:12:26.015Z,98291.47
2022-08-03T19:14:44.435Z,98295.03
2022-08-03T19:17:14.066Z,98301.84
2022-08-03T19:19:50.629Z,98312.03
2022-08-03T19:22:22.362Z,98305.97
2022-08-03T19:24:52.103Z,98311.66
2022-08-03T19:27:21.493Z,98311.88
2022-08-03T19:29:58.411Z,98309.41
2022-08-03T19:32:29.982Z,98315.31
2022-08-03T19:34:59.641Z,98312.88
2022-08-03T19:37:38.596Z,98327.91
2022-08-03T19:40:10.797Z,98321.81
2022-08-03T19:42:44.400Z,98327.13
2022-08-03T19:45:14.846Z,98330.94
2022-08-03T19:47:58.838Z,98335.59
2022-08-03T19:50:26.541Z,98338.59
2022-08-03T19:52:58.357Z,98341.22
2022-08-03T19:55:28.652Z,98343.28
2022-08-03T19:58:01.177Z,98345.38
2022-08-03T20:00:32.718Z,98345.38
2022-08-03T20:03:23.408Z,98344.75
2022-08-03T20:05:54.235Z,98351.22
2022-08-03T20:08:22.035Z,98354.69
2022-08-03T20:10:49.305Z,98361.25
2022-08-03T20:13:19.374Z,98359.22
2022-08-03T20:15:46.576Z,98353.31
2022-08-03T20:18:16.744Z,98358.38
2022-08-03T20:20:48.203Z,98369.84
2022-08-03T20:23:19.573Z,98365.81
2022-08-03T20:25:58.288Z,98367.38
2022-08-03T20:28:50.562Z,98366.84
2022-08-03T20:31:21.637Z,98364.94
2022-08-03T20:33:51.325Z,98373.81
2022-08-03T20:36:18.926Z,98367.97
2022-08-03T20:38:47.824Z,98369.31
2022-08-03T20:41:18.625Z,98374.63
2022-08-03T20:43:49.318Z,98379.50
2022-08-03T20:46:32.789Z,98384.81
2022-08-03T20:49:06.068Z,98385.50
2022-08-03T20:51:52.821Z,98381.44
2022-08-03T20:54:31.142Z,98373.63
2022-08-03T20:57:00.734Z,98377.97
2022-08-03T20:59:47.390Z,98370.78
2022-08-03T21:02:28.989Z,98379.22
2022-08-03T21:04:59.267Z,98384.88
2022-08-03T21:08:04.203Z,98380.94
2022-08-03T21:10:21.235Z,98385.25
2022-08-03T21:13:04.918Z,98230.72
2022-08-03T21:13:15.007Z,98390.66
2022-08-03T21:16:06.516Z,98393.28
2022-08-03T21:18:38.485Z,98389.63
2022-08-03T21:21:06.944Z,98397.91
2022-08-03T21:23:47.614Z,98397.34
2022-08-03T21:26:17.350Z,98390.59
2022-08-03T21:28:46.404Z,98396.66
2022-08-03T21:31:14.494Z,98396.13
2022-08-03T21:33:54.443Z,98398.75
2022-08-03T21:36:21.033Z,98402.44
2022-08-03T21:38:56.530Z,98406.84
2022-08-03T21:41:27.932Z,98405.66
2022-08-03T21:43:54.606Z,98414.47
2022-08-03T21:46:22.768Z,98416.81
2022-08-03T21:48:55.184Z,98414.59
2022-08-03T21:51:25.311Z,98415.16
2022-08-03T21:54:03.020Z,98424.13
2022-08-03T21:56:42.071Z,98419.75
2022-08-03T21:59:16.289Z,98421.09
2022-08-03T22:01:46.391Z,98432.91
2022-08-03T22:04:42.679Z,98433.34
2022-08-03T22:07:06.928Z,98437.72
2022-08-03T22:09:35.295Z,98445.56
2022-08-03T22:12:02.054Z,98448.50
2022-08-03T22:14:29.838Z,98450.13
2022-08-03T22:16:56.677Z,98445.88
2022-08-03T22:19:23.323Z,98443.50
2022-08-03T22:21:50.545Z,98446.06
2022-08-03T22:24:23.963Z,98449.59
2022-08-03T22:27:10.084Z,98451.72
2022-08-03T22:29:39.735Z,98452.47
2022-08-03T22:32:06.959Z,98456.53
2022-08-03T22:34:34.283Z,98453.34
2022-08-03T22:37:02.819Z,98461.91
2022-08-03T22:39:30.295Z,98460.28
2022-08-03T22:41:58.954Z,98465.63
2022-08-03T22:44:27.510Z,98468.69
2022-08-03T22:46:55.440Z,98471.00
2022-08-03T22:49:22.980Z,98471.63
2022-08-03T22:51:52.101Z,98466.03
2022-08-03T22:54:18.818Z,98466.38
2022-08-03T22:56:49.851Z,98464.25
2022-08-03T22:59:40.599Z,98468.16
2022-08-03T23:02:20.869Z,98473.94
2022-08-03T23:04:55.065Z,98476.66
2022-08-03T23:07:32.532Z,98480.88
2022-08-03T23:10:02.107Z,98486.41
2022-08-03T23:12:30.463Z,98479.97
2022-08-03T23:15:02.210Z,98483.06
2022-08-03T23:17:31.412Z,98484.34
2022-08-03T23:20:07.336Z,98491.53
2022-08-03T23:22:35.359Z,98500.16
2022-08-03T23:25:04.608Z,98488.75
2022-08-03T23:27:32.664Z,98487.59
2022-08-03T23:30:01.052Z,98491.41
2022-08-03T23:32:29.866Z,98492.66
2022-08-03T23:35:21.060Z,98490.09
2022-08-03T23:38:04.450Z,98491.69
2022-08-03T23:40:36.765Z,98481.53
2022-08-03T23:43:04.356Z,98492.13
2022-08-03T23:45:34.809Z,98487.47
2022-08-03T23:48:01.539Z,98492.75
2022-08-03T23:50:35.735Z,98488.63
2022-08-03T23:53:12.041Z,98486.44
2022-08-03T23:56:13.237Z,98487.50
2022-08-03T23:58:40.033Z,98489.22
